CheckWX is a tool to help pilots better visualize weather data.  It is not intended as a substitute for an official pre-flight weather briefing.

04:17:03 UTC

KPOV METAR
Portage County Airport
Ravenna, Ohio, USA
Current

42 mins ago

KPOV 270335Z AUTO 00000KT 10SM CLR 19/16 A3015 RMK AO2 T01900160 PWINO
Observed
Jun-27 @ 03:35 UTC
Visibility
10 SM
Flight Rules
VFR
Cloud Levels
  • Clear skies
Temperature
19°C / 66°F
Dewpoint
16°C / 61°F
Humidity
83%
Altimeter
30.15" Hg
Pressure
1021.02 hPa
Previous

1 hour ago

KPOV 270315Z AUTO 00000KT 10SM CLR 20/17 A3015 RMK AO2 T01970169 PWINO
Observed
Jun-27 @ 03:15 UTC
Visibility
10 SM
Flight Rules
VFR
Cloud Levels
  • Clear skies
Temperature
20°C / 68°F
Dewpoint
17°C / 63°F
Humidity
83%
Altimeter
30.15" Hg
Pressure
1021.02 hPa
Previous

1 hour ago

KPOV 270255Z AUTO 00000KT 10SM SCT060 20/18 A3014 RMK AO2 T02000176 PWINO
Observed
Jun-27 @ 02:55 UTC
Visibility
10 SM
Flight Rules
VFR
Cloud Levels
  • Scattered at 6,000' AGL
Temperature
20°C / 68°F
Dewpoint
18°C / 64°F
Humidity
88%
Altimeter
30.14" Hg
Pressure
1020.62 hPa